sensor_id;sensor_type;location;lat;lon;timestamp;temperature;humidity
6114;DHT22;3087;48.392;10.836;2022-12-07T00:00:49;5.80;99.90
6114;DHT22;3087;48.392;10.836;2022-12-07T00:10:35;5.90;99.90
6114;DHT22;3087;48.392;10.836;2022-12-07T00:22:44;6.10;99.90
6114;DHT22;3087;48.392;10.836;2022-12-07T00:27:36;6.20;99.90
6114;DHT22;3087;48.392;10.836;2022-12-07T00:30:02;6.20;99.90
6114;DHT22;3087;48.392;10.836;2022-12-07T00:34:54;6.10;99.90
6114;DHT22;3087;48.392;10.836;2022-12-07T00:39:45;6.10;99.90
6114;DHT22;3087;48.392;10.836;2022-12-07T00:42:11;6.10;99.90
6114;DHT22;3087;48.392;10.836;2022-12-07T00:44:37;6.00;99.90
6114;DHT22;3087;48.392;10.836;2022-12-07T00:47:02;6.00;99.90
6114;DHT22;3087;48.392;10.836;2022-12-07T00:59:14;6.00;99.90
6114;DHT22;3087;48.392;10.836;2022-12-07T01:06:32;5.90;99.90
6114;DHT22;3087;48.392;10.836;2022-12-07T01:08:58;6.00;99.90
6114;DHT22;3087;48.392;10.836;2022-12-07T01:11:26;6.00;99.90
6114;DHT22;3087;48.392;10.836;2022-12-07T01:13:54;6.00;99.90
6114;DHT22;3087;48.392;10.836;2022-12-07T01:16:21;6.00;99.90
6114;DHT22;3087;48.392;10.836;2022-12-07T01:18:48;6.00;99.90
6114;DHT22;3087;48.392;10.836;2022-12-07T01:21:21;5.90;99.90
6114;DHT22;3087;48.392;10.836;2022-12-07T01:23:48;5.80;99.90
6114;DHT22;3087;48.392;10.836;2022-12-07T01:26:16;5.70;99.90
6114;DHT22;3087;48.392;10.836;2022-12-07T01:28:42;5.70;99.90
6114;DHT22;3087;48.392;10.836;2022-12-07T01:31:16;5.80;99.90
6114;DHT22;3087;48.392;10.836;2022-12-07T01:33:45;5.70;99.90
6114;DHT22;3087;48.392;10.836;2022-12-07T01:36:20;5.80;99.90
6114;DHT22;3087;48.392;10.836;2022-12-07T01:38:47;5.80;99.90
6114;DHT22;3087;48.392;10.836;2022-12-07T01:41:15;5.90;99.90
6114;DHT22;3087;48.392;10.836;2022-12-07T01:46:46;5.90;99.90
6114;DHT22;3087;48.392;10.836;2022-12-07T01:49:23;5.90;99.90
6114;DHT22;3087;48.392;10.836;2022-12-07T01:51:51;6.00;99.90
6114;DHT22;3087;48.392;10.836;2022-12-07T01:54:20;6.00;99.90
6114;DHT22;3087;48.392;10.836;2022-12-07T01:56:51;6.00;99.90
6114;DHT22;3087;48.392;10.836;2022-12-07T01:59:20;6.00;99.90
6114;DHT22;3087;48.392;10.836;2022-12-07T02:11:31;6.10;99.90
6114;DHT22;3087;48.392;10.836;2022-12-07T02:27:45;6.00;99.90
6114;DHT22;3087;48.392;10.836;2022-12-07T02:30:17;6.10;99.90
6114;DHT22;3087;48.392;10.836;2022-12-07T02:33:00;6.00;99.90
6114;DHT22;3087;48.392;10.836;2022-12-07T02:35:42;6.00;99.90
6114;DHT22;3087;48.392;10.836;2022-12-07T02:38:14;6.00;99.90
6114;DHT22;3087;48.392;10.836;2022-12-07T02:40:54;6.00;99.90
6114;DHT22;3087;48.392;10.836;2022-12-07T02:43:29;6.00;99.90
6114;DHT22;3087;48.392;10.836;2022-12-07T02:46:01;6.00;99.90
6114;DHT22;3087;48.392;10.836;2022-12-07T02:48:28;6.00;99.90
6114;DHT22;3087;48.392;10.836;2022-12-07T02:50:54;6.00;99.90
6114;DHT22;3087;48.392;10.836;2022-12-07T02:53:37;6.00;99.90
6114;DHT22;3087;48.392;10.836;2022-12-07T02:59:41;5.80;99.90
6114;DHT22;3087;48.392;10.836;2022-12-07T03:05:00;5.60;99.90
6114;DHT22;3087;48.392;10.836;2022-12-07T03:07:39;5.60;99.90
6114;DHT22;3087;48.392;10.836;2022-12-07T03:15:39;5.80;99.90
6114;DHT22;3087;48.392;10.836;2022-12-07T03:18:06;5.80;99.90
6114;DHT22;3087;48.392;10.836;2022-12-07T03:20:34;5.80;99.90
6114;DHT22;3087;48.392;10.836;2022-12-07T03:23:01;5.80;99.90
6114;DHT22;3087;48.392;10.836;2022-12-07T03:25:28;5.80;99.90
6114;DHT22;3087;48.392;10.836;2022-12-07T03:27:58;5.80;99.90
6114;DHT22;3087;48.392;10.836;2022-12-07T03:33:14;5.70;99.90
6114;DHT22;3087;48.392;10.836;2022-12-07T03:35:45;5.70;99.90
6114;DHT22;3087;48.392;10.836;2022-12-07T03:38:46;5.80;99.90
6114;DHT22;3087;48.392;10.836;2022-12-07T03:43:42;5.70;99.90
6114;DHT22;3087;48.392;10.836;2022-12-07T03:46:24;5.60;99.90
6114;DHT22;3087;48.392;10.836;2022-12-07T03:51:40;5.60;99.90
6114;DHT22;3087;48.392;10.836;2022-12-07T03:54:16;5.60;99.90
6114;DHT22;3087;48.392;10.836;2022-12-07T03:56:44;5.60;99.90
6114;DHT22;3087;48.392;10.836;2022-12-07T03:59:12;5.70;99.90
6114;DHT22;3087;48.392;10.836;2022-12-07T04:01:38;5.50;99.90
6114;DHT22;3087;48.392;10.836;2022-12-07T04:16:35;5.40;99.90
6114;DHT22;3087;48.392;10.836;2022-12-07T04:23:52;5.50;99.90
6114;DHT22;3087;48.392;10.836;2022-12-07T04:28:44;5.50;99.90
6114;DHT22;3087;48.392;10.836;2022-12-07T04:31:09;5.40;99.90
6114;DHT22;3087;48.392;10.836;2022-12-07T04:36:02;5.40;99.90
6114;DHT22;3087;48.392;10.836;2022-12-07T04:45:47;5.60;99.90
6114;DHT22;3087;48.392;10.836;2022-12-07T04:48:13;5.60;99.90
6114;DHT22;3087;48.392;10.836;2022-12-07T04:50:38;5.50;99.90
6114;DHT22;3087;48.392;10.836;2022-12-07T04:53:04;5.40;99.90
6114;DHT22;3087;48.392;10.836;2022-12-07T04:57:55;5.50;99.90
6114;DHT22;3087;48.392;10.836;2022-12-07T05:00:21;5.50;99.90
6114;DHT22;3087;48.392;10.836;2022-12-07T05:02:46;5.60;99.90
6114;DHT22;3087;48.392;10.836;2022-12-07T05:07:38;5.70;99.90
6114;DHT22;3087;48.392;10.836;2022-12-07T05:10:05;5.70;99.90
6114;DHT22;3087;48.392;10.836;2022-12-07T05:12:30;5.70;99.90
6114;DHT22;3087;48.392;10.836;2022-12-07T05:14:56;5.70;99.90
6114;DHT22;3087;48.392;10.836;2022-12-07T05:19:47;5.70;99.90
6114;DHT22;3087;48.392;10.836;2022-12-07T05:22:13;5.70;99.90
6114;DHT22;3087;48.392;10.836;2022-12-07T05:24:39;5.70;99.90
6114;DHT22;3087;48.392;10.836;2022-12-07T05:27:05;5.70;99.90
6114;DHT22;3087;48.392;10.836;2022-12-07T05:39:15;5.30;99.90
6114;DHT22;3087;48.392;10.836;2022-12-07T05:44:26;5.20;99.90
6114;DHT22;3087;48.392;10.836;2022-12-07T06:01:46;4.50;99.90
6114;DHT22;3087;48.392;10.836;2022-12-07T06:04:12;4.50;99.90
6114;DHT22;3087;48.392;10.836;2022-12-07T06:14:14;4.50;99.90
6114;DHT22;3087;48.392;10.836;2022-12-07T06:19:06;4.40;99.90
6114;DHT22;3087;48.392;10.836;2022-12-07T06:28:49;4.30;99.90
6114;DHT22;3087;48.392;10.836;2022-12-07T06:33:42;4.20;99.90
6114;DHT22;3087;48.392;10.836;2022-12-07T06:36:08;4.30;99.90
6114;DHT22;3087;48.392;10.836;2022-12-07T06:38:34;4.40;99.90
6114;DHT22;3087;48.392;10.836;2022-12-07T06:40:59;4.40;99.90
6114;DHT22;3087;48.392;10.836;2022-12-07T06:45:51;4.40;99.90
6114;DHT22;3087;48.392;10.836;2022-12-07T06:50:45;4.40;99.90
6114;DHT22;3087;48.392;10.836;2022-12-07T06:53:10;4.30;99.90
6114;DHT22;3087;48.392;10.836;2022-12-07T06:55:36;4.20;99.90
6114;DHT22;3087;48.392;10.836;2022-12-07T07:00:28;4.00;99.90
6114;DHT22;3087;48.392;10.836;2022-12-07T07:02:54;3.90;99.90
6114;DHT22;3087;48.392;10.836;2022-12-07T07:10:13;3.60;99.90
6114;DHT22;3087;48.392;10.836;2022-12-07T07:12:39;3.60;99.90
6114;DHT22;3087;48.392;10.836;2022-12-07T07:15:05;3.60;99.90
6114;DHT22;3087;48.392;10.836;2022-12-07T07:27:14;3.50;99.90
6114;DHT22;3087;48.392;10.836;2022-12-07T07:29:40;3.60;99.90
6114;DHT22;3087;48.392;10.836;2022-12-07T07:32:05;3.60;99.90
6114;DHT22;3087;48.392;10.836;2022-12-07T07:36:58;3.70;99.90
6114;DHT22;3087;48.392;10.836;2022-12-07T07:41:50;4.10;99.90
6114;DHT22;3087;48.392;10.836;2022-12-07T07:44:15;4.20;99.90
6114;DHT22;3087;48.392;10.836;2022-12-07T07:46:41;4.40;99.90
6114;DHT22;3087;48.392;10.836;2022-12-07T07:51:32;4.30;99.90
6114;DHT22;3087;48.392;10.836;2022-12-07T07:53:58;4.20;99.90
6114;DHT22;3087;48.392;10.836;2022-12-07T07:56:24;4.10;99.90
6114;DHT22;3087;48.392;10.836;2022-12-07T07:58:52;4.00;99.90
6114;DHT22;3087;48.392;10.836;2022-12-07T08:03:46;3.80;99.90
6114;DHT22;3087;48.392;10.836;2022-12-07T08:06:11;3.70;99.90
6114;DHT22;3087;48.392;10.836;2022-12-07T08:08:37;3.70;99.90
6114;DHT22;3087;48.392;10.836;2022-12-07T08:11:09;3.70;99.90
6114;DHT22;3087;48.392;10.836;2022-12-07T08:13:36;3.70;99.90
6114;DHT22;3087;48.392;10.836;2022-12-07T08:16:09;3.90;99.90
6114;DHT22;3087;48.392;10.836;2022-12-07T08:18:37;4.10;99.90
6114;DHT22;3087;48.392;10.836;2022-12-07T08:21:03;4.30;99.90
6114;DHT22;3087;48.392;10.836;2022-12-07T08:23:30;4.40;99.90
6114;DHT22;3087;48.392;10.836;2022-12-07T08:26:07;4.50;99.90
6114;DHT22;3087;48.392;10.836;2022-12-07T08:28:33;4.60;99.90
6114;DHT22;3087;48.392;10.836;2022-12-07T08:31:00;4.70;99.90
6114;DHT22;3087;48.392;10.836;2022-12-07T08:33:26;4.80;99.90
6114;DHT22;3087;48.392;10.836;2022-12-07T08:38:18;4.90;99.90
6114;DHT22;3087;48.392;10.836;2022-12-07T08:45:35;5.00;99.90
6114;DHT22;3087;48.392;10.836;2022-12-07T08:48:06;5.00;99.90
6114;DHT22;3087;48.392;10.836;2022-12-07T08:50:33;5.20;99.90
6114;DHT22;3087;48.392;10.836;2022-12-07T08:52:59;5.30;99.90
6114;DHT22;3087;48.392;10.836;2022-12-07T08:55:27;5.30;99.90
6114;DHT22;3087;48.392;10.836;2022-12-07T08:57:53;5.40;99.90
6114;DHT22;3087;48.392;10.836;2022-12-07T09:00:19;5.50;99.90
6114;DHT22;3087;48.392;10.836;2022-12-07T09:02:45;5.50;99.90
6114;DHT22;3087;48.392;10.836;2022-12-07T09:05:12;5.60;99.90
6114;DHT22;3087;48.392;10.836;2022-12-07T09:07:40;5.60;99.90
6114;DHT22;3087;48.392;10.836;2022-12-07T09:10:07;5.70;99.90
6114;DHT22;3087;48.392;10.836;2022-12-07T09:12:33;5.80;99.90
6114;DHT22;3087;48.392;10.836;2022-12-07T09:14:58;5.90;99.90
6114;DHT22;3087;48.392;10.836;2022-12-07T09:17:25;6.00;99.90
6114;DHT22;3087;48.392;10.836;2022-12-07T09:19:51;6.10;99.90
6114;DHT22;3087;48.392;10.836;2022-12-07T09:22:17;6.30;99.90
6114;DHT22;3087;48.392;10.836;2022-12-07T09:29:35;8.20;99.90
6114;DHT22;3087;48.392;10.836;2022-12-07T09:34:31;9.40;99.90
6114;DHT22;3087;48.392;10.836;2022-12-07T09:36:57;9.60;99.90
6114;DHT22;3087;48.392;10.836;2022-12-07T09:39:22;9.90;99.90
6114;DHT22;3087;48.392;10.836;2022-12-07T09:41:48;10.30;99.90
6114;DHT22;3087;48.392;10.836;2022-12-07T09:44:23;10.70;99.90
6114;DHT22;3087;48.392;10.836;2022-12-07T09:46:49;11.20;99.90
6114;DHT22;3087;48.392;10.836;2022-12-07T09:49:21;11.50;99.90
6114;DHT22;3087;48.392;10.836;2022-12-07T09:51:58;11.60;99.90
6114;DHT22;3087;48.392;10.836;2022-12-07T09:54:24;11.50;99.90
6114;DHT22;3087;48.392;10.836;2022-12-07T09:56:50;11.10;99.90
6114;DHT22;3087;48.392;10.836;2022-12-07T09:59:17;10.80;99.90
6114;DHT22;3087;48.392;10.836;2022-12-07T10:01:48;10.60;99.90
6114;DHT22;3087;48.392;10.836;2022-12-07T10:04:25;10.10;99.90
6114;DHT22;3087;48.392;10.836;2022-12-07T10:06:51;9.30;99.90
6114;DHT22;3087;48.392;10.836;2022-12-07T10:09:20;9.20;99.90
6114;DHT22;3087;48.392;10.836;2022-12-07T10:12:05;9.40;99.90
6114;DHT22;3087;48.392;10.836;2022-12-07T10:14:33;9.40;99.90
6114;DHT22;3087;48.392;10.836;2022-12-07T10:17:00;9.40;99.90
6114;DHT22;3087;48.392;10.836;2022-12-07T10:19:31;9.30;99.90
6114;DHT22;3087;48.392;10.836;2022-12-07T10:24:26;8.90;99.90
6114;DHT22;3087;48.392;10.836;2022-12-07T10:26:53;8.80;99.90
6114;DHT22;3087;48.392;10.836;2022-12-07T10:31:57;8.60;99.90
6114;DHT22;3087;48.392;10.836;2022-12-07T10:34:25;8.50;99.90
6114;DHT22;3087;48.392;10.836;2022-12-07T10:36:53;8.40;99.90
6114;DHT22;3087;48.392;10.836;2022-12-07T10:39:40;8.20;99.90
6114;DHT22;3087;48.392;10.836;2022-12-07T10:44:44;7.90;99.90
6114;DHT22;3087;48.392;10.836;2022-12-07T10:47:27;8.00;99.90
6114;DHT22;3087;48.392;10.836;2022-12-07T10:52:30;8.00;99.90
6114;DHT22;3087;48.392;10.836;2022-12-07T11:00:31;8.10;99.90
6114;DHT22;3087;48.392;10.836;2022-12-07T11:03:19;8.00;99.90
6114;DHT22;3087;48.392;10.836;2022-12-07T11:08:56;7.90;99.90
6114;DHT22;3087;48.392;10.836;2022-12-07T11:12:01;7.90;99.90
6114;DHT22;3087;48.392;10.836;2022-12-07T11:17:54;7.90;99.90
6114;DHT22;3087;48.392;10.836;2022-12-07T11:20:33;7.80;99.90
6114;DHT22;3087;48.392;10.836;2022-12-07T11:23:56;7.80;99.90
6114;DHT22;3087;48.392;10.836;2022-12-07T11:26:11;7.80;99.90
6114;DHT22;3087;48.392;10.836;2022-12-07T11:34:39;7.80;99.90
6114;DHT22;3087;48.392;10.836;2022-12-07T11:37:18;7.80;99.90
6114;DHT22;3087;48.392;10.836;2022-12-07T11:39:51;7.80;99.90
6114;DHT22;3087;48.392;10.836;2022-12-07T11:42:25;7.70;99.90
6114;DHT22;3087;48.392;10.836;2022-12-07T11:47:25;7.80;99.90
6114;DHT22;3087;48.392;10.836;2022-12-07T11:50:08;7.70;99.90
6114;DHT22;3087;48.392;10.836;2022-12-07T11:52:43;7.70;99.90
6114;DHT22;3087;48.392;10.836;2022-12-07T11:58:01;7.70;99.90
6114;DHT22;3087;48.392;10.836;2022-12-07T12:00:28;7.70;99.90
6114;DHT22;3087;48.392;10.836;2022-12-07T12:03:20;7.80;99.90
6114;DHT22;3087;48.392;10.836;2022-12-07T12:05:48;7.80;99.90
6114;DHT22;3087;48.392;10.836;2022-12-07T12:08:23;7.80;99.90
6114;DHT22;3087;48.392;10.836;2022-12-07T12:11:06;7.80;99.90
6114;DHT22;3087;48.392;10.836;2022-12-07T12:19:41;7.80;99.90
6114;DHT22;3087;48.392;10.836;2022-12-07T12:22:19;7.80;99.90
6114;DHT22;3087;48.392;10.836;2022-12-07T12:24:51;7.70;99.90
6114;DHT22;3087;48.392;10.836;2022-12-07T12:27:26;7.60;99.90
6114;DHT22;3087;48.392;10.836;2022-12-07T12:29:58;7.60;99.90
6114;DHT22;3087;48.392;10.836;2022-12-07T12:32:41;7.60;99.90
6114;DHT22;3087;48.392;10.836;2022-12-07T12:35:30;7.50;99.90
6114;DHT22;3087;48.392;10.836;2022-12-07T12:38:26;7.50;99.90
6114;DHT22;3087;48.392;10.836;2022-12-07T12:40:53;7.50;99.90
6114;DHT22;3087;48.392;10.836;2022-12-07T12:51:47;7.40;99.90
6114;DHT22;3087;48.392;10.836;2022-12-07T12:54:15;7.40;99.90
6114;DHT22;3087;48.392;10.836;2022-12-07T13:01:53;7.30;99.90
6114;DHT22;3087;48.392;10.836;2022-12-07T13:04:27;7.30;99.90
6114;DHT22;3087;48.392;10.836;2022-12-07T13:06:54;7.40;99.90
6114;DHT22;3087;48.392;10.836;2022-12-07T13:12:05;7.30;99.90
6114;DHT22;3087;48.392;10.836;2022-12-07T13:14:58;7.40;99.90
6114;DHT22;3087;48.392;10.836;2022-12-07T13:20:00;7.40;99.90
6114;DHT22;3087;48.392;10.836;2022-12-07T13:24:59;7.40;99.90
6114;DHT22;3087;48.392;10.836;2022-12-07T13:29:56;7.40;99.90
6114;DHT22;3087;48.392;10.836;2022-12-07T13:32:29;7.50;99.90
6114;DHT22;3087;48.392;10.836;2022-12-07T13:37:27;7.50;99.90
6114;DHT22;3087;48.392;10.836;2022-12-07T13:40:39;7.40;99.90
6114;DHT22;3087;48.392;10.836;2022-12-07T13:42:40;7.40;99.90
6114;DHT22;3087;48.392;10.836;2022-12-07T13:45:28;7.40;99.90
6114;DHT22;3087;48.392;10.836;2022-12-07T13:48:31;7.40;99.90
6114;DHT22;3087;48.392;10.836;2022-12-07T13:50:59;7.40;99.90
6114;DHT22;3087;48.392;10.836;2022-12-07T13:53:26;7.50;99.90
6114;DHT22;3087;48.392;10.836;2022-12-07T13:58:22;7.50;99.90
6114;DHT22;3087;48.392;10.836;2022-12-07T14:00:48;7.50;99.90
6114;DHT22;3087;48.392;10.836;2022-12-07T14:05:42;7.50;99.90
6114;DHT22;3087;48.392;10.836;2022-12-07T14:13:35;7.50;99.90
6114;DHT22;3087;48.392;10.836;2022-12-07T14:16:02;7.40;99.90
6114;DHT22;3087;48.392;10.836;2022-12-07T14:18:40;7.40;99.90
6114;DHT22;3087;48.392;10.836;2022-12-07T14:26:07;7.40;99.90
6114;DHT22;3087;48.392;10.836;2022-12-07T14:28:37;7.50;99.90
6114;DHT22;3087;48.392;10.836;2022-12-07T14:31:07;7.50;99.90
6114;DHT22;3087;48.392;10.836;2022-12-07T14:33:33;7.40;99.90
6114;DHT22;3087;48.392;10.836;2022-12-07T14:35:59;7.40;99.90
6114;DHT22;3087;48.392;10.836;2022-12-07T14:38:25;7.40;99.90
6114;DHT22;3087;48.392;10.836;2022-12-07T14:40:55;7.40;99.90
6114;DHT22;3087;48.392;10.836;2022-12-07T14:43:40;7.40;99.90
6114;DHT22;3087;48.392;10.836;2022-12-07T14:48:32;7.40;99.90
6114;DHT22;3087;48.392;10.836;2022-12-07T14:50:58;7.40;99.90
6114;DHT22;3087;48.392;10.836;2022-12-07T14:53:30;7.40;99.90
6114;DHT22;3087;48.392;10.836;2022-12-07T14:58:23;7.30;99.90
6114;DHT22;3087;48.392;10.836;2022-12-07T15:00:48;7.30;99.90
6114;DHT22;3087;48.392;10.836;2022-12-07T15:03:14;7.30;99.90
6114;DHT22;3087;48.392;10.836;2022-12-07T15:05:40;7.30;99.90
6114;DHT22;3087;48.392;10.836;2022-12-07T15:08:06;7.20;99.90
6114;DHT22;3087;48.392;10.836;2022-12-07T15:13:04;7.30;99.90
6114;DHT22;3087;48.392;10.836;2022-12-07T15:15:50;7.30;99.90
6114;DHT22;3087;48.392;10.836;2022-12-07T15:32:52;7.30;99.90
6114;DHT22;3087;48.392;10.836;2022-12-07T15:35:19;7.20;99.90
6114;DHT22;3087;48.392;10.836;2022-12-07T15:37:45;7.20;99.90
6114;DHT22;3087;48.392;10.836;2022-12-07T15:40:11;7.20;99.90
6114;DHT22;3087;48.392;10.836;2022-12-07T15:45:04;7.20;99.90
6114;DHT22;3087;48.392;10.836;2022-12-07T15:47:38;7.20;99.90
6114;DHT22;3087;48.392;10.836;2022-12-07T15:50:06;7.20;99.90
6114;DHT22;3087;48.392;10.836;2022-12-07T15:52:33;7.20;99.90
6114;DHT22;3087;48.392;10.836;2022-12-07T15:54:58;7.20;99.90
6114;DHT22;3087;48.392;10.836;2022-12-07T15:57:26;7.20;99.90
6114;DHT22;3087;48.392;10.836;2022-12-07T15:59:52;7.10;99.90
6114;DHT22;3087;48.392;10.836;2022-12-07T16:02:17;7.10;99.90
6114;DHT22;3087;48.392;10.836;2022-12-07T16:07:10;7.10;99.90
6114;DHT22;3087;48.392;10.836;2022-12-07T16:09:37;7.10;99.90
6114;DHT22;3087;48.392;10.836;2022-12-07T16:12:03;7.10;99.90
6114;DHT22;3087;48.392;10.836;2022-12-07T16:16:57;7.00;99.90
6114;DHT22;3087;48.392;10.836;2022-12-07T16:19:23;7.00;99.90
6114;DHT22;3087;48.392;10.836;2022-12-07T16:24:14;7.00;99.90
6114;DHT22;3087;48.392;10.836;2022-12-07T16:26:41;7.00;99.90
6114;DHT22;3087;48.392;10.836;2022-12-07T16:29:13;7.00;99.90
6114;DHT22;3087;48.392;10.836;2022-12-07T16:31:39;7.00;99.90
6114;DHT22;3087;48.392;10.836;2022-12-07T16:34:05;7.00;99.90
6114;DHT22;3087;48.392;10.836;2022-12-07T16:36:31;7.00;99.90
6114;DHT22;3087;48.392;10.836;2022-12-07T16:38:58;7.00;99.90
6114;DHT22;3087;48.392;10.836;2022-12-07T16:43:50;6.90;99.90
6114;DHT22;3087;48.392;10.836;2022-12-07T16:48:42;6.90;99.90
6114;DHT22;3087;48.392;10.836;2022-12-07T16:51:09;6.80;99.90
6114;DHT22;3087;48.392;10.836;2022-12-07T16:53:37;6.80;99.90
6114;DHT22;3087;48.392;10.836;2022-12-07T16:58:30;6.70;99.90
6114;DHT22;3087;48.392;10.836;2022-12-07T17:03:21;6.70;99.90
6114;DHT22;3087;48.392;10.836;2022-12-07T17:08:14;6.40;99.90
6114;DHT22;3087;48.392;10.836;2022-12-07T17:10:42;6.40;99.90
6114;DHT22;3087;48.392;10.836;2022-12-07T17:16:02;6.30;99.90
6114;DHT22;3087;48.392;10.836;2022-12-07T17:18:29;6.30;99.90
6114;DHT22;3087;48.392;10.836;2022-12-07T17:21:00;6.30;99.90
6114;DHT22;3087;48.392;10.836;2022-12-07T17:23:26;6.20;99.90
6114;DHT22;3087;48.392;10.836;2022-12-07T17:40:28;5.70;99.90
6114;DHT22;3087;48.392;10.836;2022-12-07T17:42:54;5.70;99.90
6114;DHT22;3087;48.392;10.836;2022-12-07T17:45:19;5.70;99.90
6114;DHT22;3087;48.392;10.836;2022-12-07T17:50:11;5.60;99.90
6114;DHT22;3087;48.392;10.836;2022-12-07T17:52:38;6.10;99.90
6114;DHT22;3087;48.392;10.836;2022-12-07T18:00:16;5.50;99.90
6114;DHT22;3087;48.392;10.836;2022-12-07T18:02:43;5.50;99.90
6114;DHT22;3087;48.392;10.836;2022-12-07T18:10:02;5.00;99.90
6114;DHT22;3087;48.392;10.836;2022-12-07T18:17:21;4.50;99.90
6114;DHT22;3087;48.392;10.836;2022-12-07T18:22:13;4.40;99.90
6114;DHT22;3087;48.392;10.836;2022-12-07T18:24:38;4.30;99.90
6114;DHT22;3087;48.392;10.836;2022-12-07T18:27:05;4.10;99.90
6114;DHT22;3087;48.392;10.836;2022-12-07T18:31:56;4.00;99.90
6114;DHT22;3087;48.392;10.836;2022-12-07T18:39:18;4.20;99.90
6114;DHT22;3087;48.392;10.836;2022-12-07T18:49:05;4.00;99.90
6114;DHT22;3087;48.392;10.836;2022-12-07T18:53:57;4.30;99.90
6114;DHT22;3087;48.392;10.836;2022-12-07T18:58:52;4.50;99.90
6114;DHT22;3087;48.392;10.836;2022-12-07T19:01:37;4.40;99.90
6114;DHT22;3087;48.392;10.836;2022-12-07T19:04:03;4.10;99.90
6114;DHT22;3087;48.392;10.836;2022-12-07T19:06:29;3.90;99.90
6114;DHT22;3087;48.392;10.836;2022-12-07T19:11:30;3.80;99.90
6114;DHT22;3087;48.392;10.836;2022-12-07T19:14:35;4.00;99.90
6114;DHT22;3087;48.392;10.836;2022-12-07T19:17:04;4.10;99.90
6114;DHT22;3087;48.392;10.836;2022-12-07T19:19:44;4.30;99.90
6114;DHT22;3087;48.392;10.836;2022-12-07T19:22:12;4.40;99.90
6114;DHT22;3087;48.392;10.836;2022-12-07T19:27:06;4.50;99.90
6114;DHT22;3087;48.392;10.836;2022-12-07T19:29:32;4.60;99.90
6114;DHT22;3087;48.392;10.836;2022-12-07T19:31:59;4.60;99.90
6114;DHT22;3087;48.392;10.836;2022-12-07T19:34:25;4.60;99.90
6114;DHT22;3087;48.392;10.836;2022-12-07T19:41:43;4.70;99.90
6114;DHT22;3087;48.392;10.836;2022-12-07T19:44:14;4.70;99.90
6114;DHT22;3087;48.392;10.836;2022-12-07T19:54:00;4.70;99.90
6114;DHT22;3087;48.392;10.836;2022-12-07T19:56:27;4.70;99.90
6114;DHT22;3087;48.392;10.836;2022-12-07T19:58:53;4.60;99.90
6114;DHT22;3087;48.392;10.836;2022-12-07T20:01:20;4.70;99.90
6114;DHT22;3087;48.392;10.836;2022-12-07T20:03:47;4.70;99.90
6114;DHT22;3087;48.392;10.836;2022-12-07T20:06:15;4.70;99.90
6114;DHT22;3087;48.392;10.836;2022-12-07T20:08:41;4.80;99.90
6114;DHT22;3087;48.392;10.836;2022-12-07T20:11:07;4.80;99.90
6114;DHT22;3087;48.392;10.836;2022-12-07T20:13:51;4.80;99.90
6114;DHT22;3087;48.392;10.836;2022-12-07T20:23:36;4.90;99.90
6114;DHT22;3087;48.392;10.836;2022-12-07T20:26:05;4.90;99.90
6114;DHT22;3087;48.392;10.836;2022-12-07T20:28:31;5.00;99.90
6114;DHT22;3087;48.392;10.836;2022-12-07T20:33:23;4.90;99.90
6114;DHT22;3087;48.392;10.836;2022-12-07T20:35:49;4.90;99.90
6114;DHT22;3087;48.392;10.836;2022-12-07T20:38:14;5.00;99.90
6114;DHT22;3087;48.392;10.836;2022-12-07T20:40:48;5.00;99.90
6114;DHT22;3087;48.392;10.836;2022-12-07T20:45:47;5.00;99.90
6114;DHT22;3087;48.392;10.836;2022-12-07T20:48:13;5.00;99.90
6114;DHT22;3087;48.392;10.836;2022-12-07T20:50:39;4.80;99.90
6114;DHT22;3087;48.392;10.836;2022-12-07T21:02:49;4.20;99.90
6114;DHT22;3087;48.392;10.836;2022-12-07T21:05:14;4.10;99.90
6114;DHT22;3087;48.392;10.836;2022-12-07T21:07:40;4.00;99.90
6114;DHT22;3087;48.392;10.836;2022-12-07T21:10:06;4.10;99.90
6114;DHT22;3087;48.392;10.836;2022-12-07T21:12:32;4.20;99.90
6114;DHT22;3087;48.392;10.836;2022-12-07T21:14:58;4.40;99.90
6114;DHT22;3087;48.392;10.836;2022-12-07T21:22:16;4.20;99.90
6114;DHT22;3087;48.392;10.836;2022-12-07T21:27:08;4.10;99.90
6114;DHT22;3087;48.392;10.836;2022-12-07T21:29:34;4.10;99.90
6114;DHT22;3087;48.392;10.836;2022-12-07T21:32:01;4.20;99.90
6114;DHT22;3087;48.392;10.836;2022-12-07T21:34:27;4.10;99.90
6114;DHT22;3087;48.392;10.836;2022-12-07T21:36:52;4.10;99.90
6114;DHT22;3087;48.392;10.836;2022-12-07T21:39:18;4.10;99.90
6114;DHT22;3087;48.392;10.836;2022-12-07T21:41:43;4.20;99.90
6114;DHT22;3087;48.392;10.836;2022-12-07T21:44:09;4.40;99.90
6114;DHT22;3087;48.392;10.836;2022-12-07T21:46:35;4.50;99.90
6114;DHT22;3087;48.392;10.836;2022-12-07T21:49:07;4.60;99.90
6114;DHT22;3087;48.392;10.836;2022-12-07T21:54:02;4.40;99.90
6114;DHT22;3087;48.392;10.836;2022-12-07T21:59:03;4.50;99.90
6114;DHT22;3087;48.392;10.836;2022-12-07T22:01:31;4.50;99.90
6114;DHT22;3087;48.392;10.836;2022-12-07T22:04:00;4.60;99.90
6114;DHT22;3087;48.392;10.836;2022-12-07T22:06:26;4.70;99.90
6114;DHT22;3087;48.392;10.836;2022-12-07T22:08:53;4.70;99.90
6114;DHT22;3087;48.392;10.836;2022-12-07T22:11:20;4.80;99.90
6114;DHT22;3087;48.392;10.836;2022-12-07T22:13:46;4.80;99.90
6114;DHT22;3087;48.392;10.836;2022-12-07T22:16:31;4.70;99.90
6114;DHT22;3087;48.392;10.836;2022-12-07T22:18:57;4.70;99.90
6114;DHT22;3087;48.392;10.836;2022-12-07T22:21:23;4.60;99.90
6114;DHT22;3087;48.392;10.836;2022-12-07T22:23:49;4.60;99.90
6114;DHT22;3087;48.392;10.836;2022-12-07T22:26:15;4.60;99.90
6114;DHT22;3087;48.392;10.836;2022-12-07T22:28:42;4.60;99.90
6114;DHT22;3087;48.392;10.836;2022-12-07T22:31:10;4.70;99.90
6114;DHT22;3087;48.392;10.836;2022-12-07T22:36:03;4.80;99.90
6114;DHT22;3087;48.392;10.836;2022-12-07T22:38:29;4.90;99.90
6114;DHT22;3087;48.392;10.836;2022-12-07T22:40:55;4.90;99.90
6114;DHT22;3087;48.392;10.836;2022-12-07T22:43:21;4.90;99.90
6114;DHT22;3087;48.392;10.836;2022-12-07T22:45:58;5.00;99.90
6114;DHT22;3087;48.392;10.836;2022-12-07T22:48:25;5.10;99.90
6114;DHT22;3087;48.392;10.836;2022-12-07T22:50:52;5.10;99.90
6114;DHT22;3087;48.392;10.836;2022-12-07T22:53:19;5.00;99.90
6114;DHT22;3087;48.392;10.836;2022-12-07T23:03:02;4.50;99.90
6114;DHT22;3087;48.392;10.836;2022-12-07T23:05:28;4.30;99.90
6114;DHT22;3087;48.392;10.836;2022-12-07T23:07:54;4.00;99.90
6114;DHT22;3087;48.392;10.836;2022-12-07T23:10:20;3.90;99.90
6114;DHT22;3087;48.392;10.836;2022-12-07T23:15:35;3.80;99.90
6114;DHT22;3087;48.392;10.836;2022-12-07T23:18:02;3.70;99.90
6114;DHT22;3087;48.392;10.836;2022-12-07T23:27:45;4.10;99.90
6114;DHT22;3087;48.392;10.836;2022-12-07T23:30:11;4.20;99.90
6114;DHT22;3087;48.392;10.836;2022-12-07T23:32:36;4.30;99.90
6114;DHT22;3087;48.392;10.836;2022-12-07T23:35:02;4.30;99.90
6114;DHT22;3087;48.392;10.836;2022-12-07T23:47:12;4.20;99.90
6114;DHT22;3087;48.392;10.836;2022-12-07T23:49:37;4.10;99.90
6114;DHT22;3087;48.392;10.836;2022-12-07T23:52:03;4.00;99.90
